Aktualne dane pomiarowe

Uwaga, wersja testowa! Automatyczne pobieranie danych za pomocą narzędzi lub skryptów to umożliwiających jest zabronione.

Dane meteo z obszaru Polski uzyskane na podstawie depesz SYNOP pobieranych co godzinę z NWS. Najedź myszką na symbol przedstawiony w tabeli, aby uzyskać informacje co do jego znaczenia. Prosimy pamiętać, że to testowa wersja strony, która jeszcze nie jest ukończona. Stworzono również jest krótki FAQ dotyczący korzystania z tej podstrony Anomalie temperatury w chwili obecnej odniesione są do okresu referencyjnego 1951-2016. Okres ten będzie później zmieniony na 1981-2010. Kliknij ikonę aby pobrać plik CSV. Kliknij ikonę aby wygenerować mapę synoptyczną dla danego terminu.

Wybierz Datę:    

        

Kłodzko (12520)

Dane terminowe dla wybranej stacji. Kliknij datę, aby otrzymać dane z tego terminu dla wszystkich stacji.

TemperaturaZachmurzenieWiatrCiśnienieOpadyPogoda
 Data t td wb tx tn tg rh  Nt Nl Cl Cm Ch ws wd g1 g2 wx mslp ppp ch 24h 12h t ww ww w1 w2  
2019-07-12 23:00:00 11.9 11.9 11.9--- 1000.4wxwxwxwx1wx--11011.2 968.8 -0.1---wx-w1w2--
2019-07-12 22:00:00 12.3 12.3 12.3--- 1000.3wx-1wx---1011.3 969.0 0.1---wx-w1w2--
2019-07-12 21:00:00 12.1 12.1 12.1--- 1000.1wx-1wx--11011.6 969.2 0.2---wx-w1--
2019-07-12 20:00:00 13.5 13.3 13.3--- 990.4wx-wx2wx--21011.0 968.9 0.0---wx-w1--
2019-07-12 19:00:00 14.3 14.0 14.1--- 984.0wxwxwxwxwx1wx--11010.9 968.9 -0.3---wx---
2019-07-12 18:00:00 15.3 14.5 14.7 18.9 14.1- 9530.0wxwxwxwxwx2wx--21010.9 969.0 -0.6- 6.012wx-w1--
2019-07-12 17:00:00 15.7 14.2 14.6--- 9115.0wxwxwxwxwx1wx--11010.7 968.9 -0.7---wx-w1--
2019-07-12 16:00:00 15.6 14.6 14.9--- 9415.0wxwxwx1wx--11011.0 969.2 -0.4---wx-w1--
2019-07-12 15:00:00 16.2 14.9 15.3--- 9215.0wxwxwx1wx--11011.4 969.6 0.0---wx-w1--
2019-07-12 14:00:00 16.6 14.2 14.9--- 8620.0wxwxwxwx2wx--21011.3 969.6 -0.2---wx-w1--
2019-07-12 13:00:00 16.6 14.6 15.2--- 8815.0wxwxwxwx3wx--31011.3 969.6 -0.4---wx-w1w2--
2019-07-12 12:00:00 17.0 13.7 14.8--- 8135.0wxwxwxwx1wx--11011.3 969.6 -0.3- 3.06wx-w1w2--
2019-07-12 11:00:00 17.1 13.8 14.9--- 8120.0wxwxwxwx1wx--11011.5 969.8 -0.1---wx-w1w2--
2019-07-12 10:00:00 16.3 13.4 14.3--- 8312.0wxwxwxwx3wx--31011.8 970.0 -0.1---wx-w1--
2019-07-12 09:00:00 17.8 13.1 14.7--- 7435.0wxwxwxwx4wx---1011.5 969.9 -0.3---wx---
2019-07-12 08:00:00 18.5 12.5 14.7--- 6835.0wxwxwxwxwx3wx--31011.4 969.9 -0.4---------
2019-07-12 07:00:00 17.4 11.9 13.9--- 7030.0wxwxwxwxwx1wx--11011.7 970.1 -0.2---------
2019-07-12 06:00:00 14.1 10.7 11.9 21.0 7.0 6 8030.0wxwxwxwxwx1wx--11012.3 970.2 0.0- 0.012----- 9.9
2019-07-12 05:00:00 10.4 8.8 9.3--- 9040.0wxwxwxwxwx1wx---1013.0 970.3 0.1---------
2019-07-12 04:00:00 8.5 7.6 7.8--- 9435.0wx-wxwx1wx--11013.3 970.3 -0.2---------
2019-07-12 03:00:00 7.3 6.2 6.5--- 9335.0wx-wxwx1---11013.4 970.2 -0.5---------
2019-07-12 02:00:00 9.2 7.3 7.9--- 8845.0wx-wxwx0---01013.1 970.2 -0.7---------
2019-07-12 01:00:00 9.7 8.0 8.5--- 8950.0wx-wxwx0---01013.3 970.5 -0.5---------
2019-07-12 00:00:00 9.3 8.2 8.5--- 9330.0wx-wxwx1wx--11013.6 970.7 -0.3- 0.06------
2019-07-11 23:00:00 11.1 7.4 8.8--- 7850.0wxwxwxwxwx2wx--21013.5 970.9 0.1---------
2019-07-11 22:00:00 11.6 8.8 9.8--- 8350.0wxwxwxwxwx2wx--21013.5 971.0 0.5---------
2019-07-11 21:00:00 13.7 9.3 10.9--- 7550.0wxwxwxwxwx2wx--21013.2 971.0 0.8---------
2019-07-11 20:00:00 14.5 9.5 11.4--- 7250.0wxwxwxwxwx2wx--21012.9 970.8 0.6---------
2019-07-11 19:00:00 19.3 6.4 12.2--- 4350.0wxwxwxwxwx1wx--11011.9 970.5 0.4---------
2019-07-11 18:00:00 21.0 5.3 12.5 22.8 13.3- 3650.0wxwxwxwxwx2wx-821011.3 970.2 -0.1- 0.012------
2019-07-11 17:00:00 22.1 5.5 13.1--- 3450.0wxwxwxwx2wx--21011.1 970.2 -0.3---------
2019-07-11 16:00:00 21.8 6.1 13.2--- 3650.0wxwxwxwx2wx--21011.1 970.1 -0.6---------
2019-07-11 15:00:00 21.8 5.6 13.0--- 3550.0wxwxwxwx2wx-821011.3 970.3 -0.8---------
2019-07-11 14:00:00 22.4 4.4 12.8--- 3150.0wxwxwxwx2wx-821011.4 970.5 -1.0---------
2019-07-11 13:00:00 22.0 5.0 12.8--- 3350.0wxwxwxwx2wx--21011.7 970.7 -1.1---------
2019-07-11 12:00:00 22.1 7.1 13.7--- 3850.0wxwxwxwx2wx-1021012.1 971.1 -0.9- 0.06------
2019-07-11 11:00:00 20.5 6.1 12.6--- 3950.0wxwxwx4wx--41012.7 971.5 -0.5---------
2019-07-11 10:00:00 19.6 5.3 11.9--- 3950.0wxwxwx4wx--41013.2 971.8 -0.4---------
2019-07-11 09:00:00 19.2 7.9 12.7--- 4850.0wxwxwx3wx--31013.4 972.0 -0.4---------
2019-07-11 08:00:00 18.7 9.2 13.1--- 5450.0wxwxwxwxwx3wx--31013.5 972.0 -0.4---------
2019-07-11 07:00:00 16.3 11.7 13.3--- 7450.0wxwxwxwxwx1wx---1014.1 972.2 -0.3---------
2019-07-11 06:00:00 13.3 11.7 12.2 15.4 9.2 6 9045.0wxwxwxwxwx2wx--21014.7 972.4 0.1 1.0 0.612wx-w1- 5.7
2019-07-11 05:00:00 10.9 10.4 10.5--- 9725.0wxwxwxwxwx2wx--21015.1 972.4 0.0---wx---
2019-07-11 04:00:00 9.9 9.6 9.6--- 9820.0wxwxwxwx1wx--11015.4 972.5 -0.4---wx---
2019-07-11 03:00:00 9.6 9.1 9.2--- 9712.0wx-wx2wx--21015.2 972.3 -0.9---------
2019-07-11 02:00:00 9.7 8.6 8.9--- 9315.0wx-wx1wx--11015.3 972.4 -1.2---------
2019-07-11 01:00:00 10.9 10.3 10.4--- 9615.0wx-wx2wx--21015.6 972.9 -0.7---------
2019-07-11 00:00:00 11.2 10.4 10.6--- 9525.0wxwxwxwx2wx--21015.9 973.2 -0.5- 0.66wx-w1--
1.1 ms

 

Print Friendly, PDF & Email